sensor_id;sensor_type;location;lat;lon;timestamp;P1;durP1;ratioP1;P2;durP2;ratioP2
6862;SDS011;3470;48.738;9.616;2023-08-06T00:00:09;22.30;;;16.88;;
6862;SDS011;3470;48.738;9.616;2023-08-06T00:02:35;21.00;;;16.97;;
6862;SDS011;3470;48.738;9.616;2023-08-06T00:05:01;21.17;;;16.30;;
6862;SDS011;3470;48.738;9.616;2023-08-06T00:07:27;20.67;;;18.07;;
6862;SDS011;3470;48.738;9.616;2023-08-06T00:09:52;23.83;;;17.10;;
6862;SDS011;3470;48.738;9.616;2023-08-06T00:12:18;18.60;;;16.03;;
6862;SDS011;3470;48.738;9.616;2023-08-06T00:14:44;18.63;;;15.82;;
6862;SDS011;3470;48.738;9.616;2023-08-06T00:17:10;20.20;;;16.27;;
6862;SDS011;3470;48.738;9.616;2023-08-06T00:19:35;22.42;;;17.52;;
6862;SDS011;3470;48.738;9.616;2023-08-06T00:22:01;23.50;;;16.73;;
6862;SDS011;3470;48.738;9.616;2023-08-06T00:24:27;25.37;;;16.93;;
6862;SDS011;3470;48.738;9.616;2023-08-06T00:26:52;21.67;;;16.23;;
6862;SDS011;3470;48.738;9.616;2023-08-06T00:29:18;22.80;;;16.83;;
6862;SDS011;3470;48.738;9.616;2023-08-06T00:31:44;22.63;;;17.75;;
6862;SDS011;3470;48.738;9.616;2023-08-06T00:34:09;24.38;;;18.05;;
6862;SDS011;3470;48.738;9.616;2023-08-06T00:36:35;19.73;;;16.70;;
6862;SDS011;3470;48.738;9.616;2023-08-06T00:39:00;25.20;;;18.50;;
6862;SDS011;3470;48.738;9.616;2023-08-06T00:41:26;19.83;;;17.58;;
6862;SDS011;3470;48.738;9.616;2023-08-06T00:43:52;21.27;;;17.93;;
6862;SDS011;3470;48.738;9.616;2023-08-06T00:46:17;22.67;;;17.52;;
6862;SDS011;3470;48.738;9.616;2023-08-06T00:48:43;20.67;;;17.15;;
6862;SDS011;3470;48.738;9.616;2023-08-06T00:51:09;20.80;;;16.77;;
6862;SDS011;3470;48.738;9.616;2023-08-06T00:53:37;20.30;;;16.63;;
6862;SDS011;3470;48.738;9.616;2023-08-06T00:56:03;20.33;;;16.87;;
6862;SDS011;3470;48.738;9.616;2023-08-06T00:58:28;20.10;;;15.77;;
6862;SDS011;3470;48.738;9.616;2023-08-06T01:00:55;22.10;;;15.63;;
6862;SDS011;3470;48.738;9.616;2023-08-06T01:03:20;18.05;;;14.25;;
6862;SDS011;3470;48.738;9.616;2023-08-06T18:14:26;2.10;;;1.80;;
6862;SDS011;3470;48.738;9.616;2023-08-06T18:16:52;2.57;;;1.93;;
6862;SDS011;3470;48.738;9.616;2023-08-06T18:19:18;2.73;;;1.87;;
6862;SDS011;3470;48.738;9.616;2023-08-06T18:32:16;1.93;;;1.73;;
6862;SDS011;3470;48.738;9.616;2023-08-06T18:34:41;1.80;;;1.70;;
6862;SDS011;3470;48.738;9.616;2023-08-06T18:37:07;2.20;;;1.70;;
6862;SDS011;3470;48.738;9.616;2023-08-06T18:39:32;3.70;;;1.70;;
6862;SDS011;3470;48.738;9.616;2023-08-06T18:41:58;2.33;;;1.83;;
6862;SDS011;3470;48.738;9.616;2023-08-06T18:44:24;2.93;;;2.00;;
6862;SDS011;3470;48.738;9.616;2023-08-06T18:46:49;2.73;;;1.70;;
6862;SDS011;3470;48.738;9.616;2023-08-06T18:49:15;2.20;;;1.80;;
6862;SDS011;3470;48.738;9.616;2023-08-06T18:51:40;2.97;;;1.80;;
6862;SDS011;3470;48.738;9.616;2023-08-06T18:54:06;2.07;;;1.83;;
6862;SDS011;3470;48.738;9.616;2023-08-06T18:56:31;2.17;;;1.53;;
6862;SDS011;3470;48.738;9.616;2023-08-06T18:58:57;3.30;;;1.70;;
6862;SDS011;3470;48.738;9.616;2023-08-06T19:01:22;4.10;;;1.73;;
6862;SDS011;3470;48.738;9.616;2023-08-06T19:03:48;1.67;;;1.53;;
6862;SDS011;3470;48.738;9.616;2023-08-06T19:06:14;1.73;;;1.63;;
6862;SDS011;3470;48.738;9.616;2023-08-06T19:08:39;2.13;;;1.90;;
6862;SDS011;3470;48.738;9.616;2023-08-06T19:11:05;3.70;;;2.27;;
6862;SDS011;3470;48.738;9.616;2023-08-06T19:13:31;2.40;;;1.93;;
6862;SDS011;3470;48.738;9.616;2023-08-06T19:15:56;2.27;;;2.07;;
6862;SDS011;3470;48.738;9.616;2023-08-06T19:18:22;2.50;;;2.30;;
6862;SDS011;3470;48.738;9.616;2023-08-06T19:20:48;3.30;;;2.40;;
6862;SDS011;3470;48.738;9.616;2023-08-06T19:23:13;6.70;;;2.70;;
6862;SDS011;3470;48.738;9.616;2023-08-06T19:25:46;4.83;;;2.70;;
6862;SDS011;3470;48.738;9.616;2023-08-06T19:28:13;5.37;;;2.53;;
6862;SDS011;3470;48.738;9.616;2023-08-06T19:30:40;4.53;;;2.40;;
6862;SDS011;3470;48.738;9.616;2023-08-06T19:33:09;3.87;;;2.80;;
6862;SDS011;3470;48.738;9.616;2023-08-06T19:35:44;6.03;;;2.70;;
6862;SDS011;3470;48.738;9.616;2023-08-06T19:38:18;3.87;;;3.00;;
6862;SDS011;3470;48.738;9.616;2023-08-06T19:40:45;5.57;;;3.03;;
6862;SDS011;3470;48.738;9.616;2023-08-06T19:43:11;3.43;;;2.80;;
6862;SDS011;3470;48.738;9.616;2023-08-06T19:45:37;3.27;;;3.00;;
6862;SDS011;3470;48.738;9.616;2023-08-06T19:48:05;2.80;;;2.40;;
6862;SDS011;3470;48.738;9.616;2023-08-06T19:50:31;3.27;;;2.90;;
6862;SDS011;3470;48.738;9.616;2023-08-06T19:52:57;5.10;;;2.73;;
6862;SDS011;3470;48.738;9.616;2023-08-06T19:55:24;4.10;;;3.23;;
6862;SDS011;3470;48.738;9.616;2023-08-06T19:57:50;4.33;;;2.50;;
6862;SDS011;3470;48.738;9.616;2023-08-06T20:00:15;7.60;;;2.80;;
6862;SDS011;3470;48.738;9.616;2023-08-06T20:02:41;3.13;;;2.80;;
6862;SDS011;3470;48.738;9.616;2023-08-06T20:05:07;6.27;;;2.63;;
6862;SDS011;3470;48.738;9.616;2023-08-06T20:07:33;3.10;;;2.23;;
6862;SDS011;3470;48.738;9.616;2023-08-06T20:09:59;3.43;;;2.50;;
6862;SDS011;3470;48.738;9.616;2023-08-06T20:12:24;4.57;;;2.57;;
6862;SDS011;3470;48.738;9.616;2023-08-06T20:14:50;4.63;;;2.83;;
6862;SDS011;3470;48.738;9.616;2023-08-06T20:17:15;3.77;;;2.07;;
6862;SDS011;3470;48.738;9.616;2023-08-06T20:19:41;2.73;;;2.00;;
6862;SDS011;3470;48.738;9.616;2023-08-06T20:22:06;3.13;;;2.20;;
6862;SDS011;3470;48.738;9.616;2023-08-06T20:24:32;2.97;;;2.30;;
6862;SDS011;3470;48.738;9.616;2023-08-06T20:26:57;2.30;;;2.07;;
6862;SDS011;3470;48.738;9.616;2023-08-06T20:29:25;3.30;;;2.13;;
6862;SDS011;3470;48.738;9.616;2023-08-06T20:31:51;2.53;;;2.00;;
6862;SDS011;3470;48.738;9.616;2023-08-06T20:34:16;3.10;;;2.17;;
6862;SDS011;3470;48.738;9.616;2023-08-06T20:36:42;3.13;;;2.27;;
6862;SDS011;3470;48.738;9.616;2023-08-06T20:39:08;2.67;;;2.30;;
6862;SDS011;3470;48.738;9.616;2023-08-06T20:41:33;3.90;;;2.53;;
6862;SDS011;3470;48.738;9.616;2023-08-06T20:43:59;4.63;;;2.37;;
6862;SDS011;3470;48.738;9.616;2023-08-06T20:46:24;2.57;;;2.30;;
6862;SDS011;3470;48.738;9.616;2023-08-06T20:48:50;2.70;;;2.00;;
6862;SDS011;3470;48.738;9.616;2023-08-06T20:51:16;4.30;;;2.07;;
6862;SDS011;3470;48.738;9.616;2023-08-06T20:53:41;2.77;;;2.40;;
6862;SDS011;3470;48.738;9.616;2023-08-06T20:56:07;2.50;;;2.30;;
6862;SDS011;3470;48.738;9.616;2023-08-06T20:58:33;3.33;;;2.60;;
6862;SDS011;3470;48.738;9.616;2023-08-06T21:00:59;4.30;;;2.57;;
6862;SDS011;3470;48.738;9.616;2023-08-06T21:03:26;3.37;;;2.10;;
6862;SDS011;3470;48.738;9.616;2023-08-06T21:06:02;3.97;;;2.40;;
6862;SDS011;3470;48.738;9.616;2023-08-06T21:08:31;3.50;;;1.97;;
6862;SDS011;3470;48.738;9.616;2023-08-06T21:10:58;3.53;;;2.20;;
6862;SDS011;3470;48.738;9.616;2023-08-06T21:13:25;2.17;;;1.97;;
6862;SDS011;3470;48.738;9.616;2023-08-06T21:18:26;3.37;;;1.80;;
6862;SDS011;3470;48.738;9.616;2023-08-06T21:20:54;4.37;;;2.00;;
6862;SDS011;3470;48.738;9.616;2023-08-06T21:23:21;4.07;;;1.80;;
6862;SDS011;3470;48.738;9.616;2023-08-06T21:25:48;3.10;;;2.13;;
6862;SDS011;3470;48.738;9.616;2023-08-06T21:28:14;2.23;;;2.03;;
6862;SDS011;3470;48.738;9.616;2023-08-06T21:30:40;3.00;;;2.17;;
